Skip to main content

NOAA/GLERL Met Station at Chicago, IL

Previous 3 Hours (2 minute increments)
See also Previous 5 Days (top of hour)
Jump down to Data
Switch to [English][Metric]
Zoom: Click and drag, Pan: shift-click and drag, Unzoom: double-click, Unzoom All




See also 1-day windrose plot


NOAA/GLERL Met Station at Chicago, IL

Previous 3 Hours (2 minute increments)
See also Previous 5 Days (top of hour only)
Jump up to Graphs
Switch to [English][Metric]
                  Wind  Wind  Wind   Air   Dew   Rel
                   Spd   Gst   Dir  Temp    Pt   Hum
YYYY-MM-DD   CST   kts   kts   deg     F     F     %
2020-01-24 09:20   7.6   8.2   126  35.4  35.5 100.2
2020-01-24 09:18   7.6   8.4   125  35.4  35.5 100.2
2020-01-24 09:16   8.0   8.2   123  35.4  35.5 100.2
2020-01-24 09:14   8.2   8.4   122  35.4  35.5 100.2
2020-01-24 09:12   8.2   8.6   121  35.4  35.5 100.2
2020-01-24 09:10   8.4   8.6   123  35.4  35.5 100.2
2020-01-24 09:08   8.6   8.7   121  35.4  35.5 100.2
2020-01-24 09:06   8.4   8.9   119  35.4  35.5 100.2
2020-01-24 09:04   8.7   9.1   117  35.4  35.5 100.2
2020-01-24 09:02   8.7   9.1   117  35.4  35.5 100.2
2020-01-24 09:00   8.7   9.1   116  35.4  35.5 100.2
2020-01-24 08:58   8.7   9.1   117  35.4  35.5 100.2
2020-01-24 08:56   8.9   9.3   117  35.4  35.5 100.2
2020-01-24 08:54   8.7   9.5   115  35.4  35.5 100.2
2020-01-24 08:52   9.1   9.5   112  35.4  35.5 100.2
2020-01-24 08:50   9.1   9.5   112  35.2  35.3 100.2
2020-01-24 08:48   9.3  10.1   111  35.2  35.3 100.2
2020-01-24 08:46   9.5  10.1   110  35.2  35.3 100.2
2020-01-24 08:44   9.3   9.9   110  35.2  35.3 100.2
2020-01-24 08:42   9.1   9.7   109  35.2  35.3 100.2
2020-01-24 08:40   9.1   9.7   108  35.2  35.3 100.2
2020-01-24 08:38   9.1   9.7   108  35.2  35.3 100.2
2020-01-24 08:36   9.1   9.9   109  35.2  35.3 100.2
2020-01-24 08:34   8.9   9.5   108  35.2  35.3 100.2
2020-01-24 08:32   8.7   9.1   107  35.2  35.3 100.2
2020-01-24 08:30   8.6   9.1   106  35.2  35.3 100.2
2020-01-24 08:28   8.6   9.3   108  35.2  35.3 100.2
2020-01-24 08:26   8.2   8.7   108  35.2  35.3 100.2
2020-01-24 08:24   8.4   9.1   109  35.2  35.3 100.2
2020-01-24 08:22   8.2   8.7   109  35.2  35.3 100.2
2020-01-24 08:20   8.6   9.9   111  35.2  35.3 100.2
2020-01-24 08:18   8.7   9.1   115  35.2  35.3 100.2
2020-01-24 08:16   8.6   8.9   116  35.2  35.3 100.2
2020-01-24 08:14   8.4   8.9   116  35.2  35.3 100.2
2020-01-24 08:12   8.2   8.7   117  35.2  35.3 100.2
2020-01-24 08:10   8.0   8.7   116  35.2  35.3 100.2
2020-01-24 08:08   8.0   8.6   115  35.2  35.3 100.2
2020-01-24 08:06   8.2   8.7   117  35.2  35.3 100.2
2020-01-24 08:04   8.0   8.4   117  35.2  35.3 100.2
2020-01-24 08:02   7.8   8.2   117  35.2  35.3 100.2
2020-01-24 08:00   8.2   8.6   116  35.2  35.3 100.2
2020-01-24 07:58   8.2   8.7   116  35.2  35.3 100.2
2020-01-24 07:56   8.2   8.6   115  35.2  35.3 100.2
2020-01-24 07:54   8.4   8.6   114  35.2  35.3 100.2
2020-01-24 07:52   8.2   8.6   116  35.2  35.3 100.2
2020-01-24 07:50   8.0   8.4   118  35.2  35.3 100.2
2020-01-24 07:48   8.0   8.6   116  35.2  35.3 100.2
2020-01-24 07:46   7.8   8.4   114  35.2  35.3 100.2
2020-01-24 07:44   7.4   8.2   111  35.2  35.3 100.2
2020-01-24 07:42   7.2   7.8   110  35.2  35.3 100.2
2020-01-24 07:40   7.4   7.8   109  35.2  35.3 100.2
2020-01-24 07:38   7.6   8.0   109  35.2  35.3 100.2
2020-01-24 07:36   7.6   8.2   107  35.2  35.3 100.2
2020-01-24 07:34   7.8   8.7   106  35.2  35.3 100.2
2020-01-24 07:32   7.8   8.2   102  35.2  35.3 100.2
2020-01-24 07:30   7.6   8.2   100  35.2  35.3 100.2
2020-01-24 07:28   8.0   8.4   100  35.2  35.3 100.2
2020-01-24 07:26   8.0   8.6    99  35.2  35.3 100.2
2020-01-24 07:24   8.4   8.9    99  35.2  35.3 100.2
2020-01-24 07:22   8.6   9.1    99  35.2  35.3 100.2
2020-01-24 07:20   8.7   9.3   100  35.2  35.3 100.2
2020-01-24 07:18   8.9   9.9   101  35.2  35.3 100.2
2020-01-24 07:16   9.1   9.3   100  35.4  35.5 100.2
2020-01-24 07:14   9.1   9.9    99  35.4  35.5 100.2
2020-01-24 07:12   9.3   9.9    99  35.4  35.5 100.2
2020-01-24 07:10   9.3  10.1    98  35.4  35.5 100.2
2020-01-24 07:08   9.5  10.1    98  35.4  35.5 100.2
2020-01-24 07:06   9.5  10.3    98  35.4  35.5 100.2
2020-01-24 07:04   9.9  10.3    98  35.4  35.5 100.2
2020-01-24 07:02  10.1  10.9    98  35.4  35.5 100.2
2020-01-24 07:00   9.7  10.3    97  35.4  35.5 100.2
2020-01-24 06:58   9.9  10.5    98  35.4  35.5 100.2
2020-01-24 06:56   9.7  10.3    98  35.4  35.5 100.2
2020-01-24 06:54   9.5   9.9    98  35.2  35.3 100.2
2020-01-24 06:52   9.1   9.5    97  35.2  35.3 100.2
2020-01-24 06:50   9.3  10.1    96  35.2  35.3 100.2
2020-01-24 06:48   8.9   9.5    97  35.2  35.3 100.2
2020-01-24 06:46   8.7   9.3    98  35.2  35.3 100.2
2020-01-24 06:44   8.9   9.3    98  35.2  35.3 100.2
2020-01-24 06:42   8.6   9.3    95  35.2  35.3 100.2
2020-01-24 06:40   8.6   9.1    94  35.2  35.3 100.2
2020-01-24 06:38   8.4   8.9    94  35.2  35.3 100.2
2020-01-24 06:36   8.2   8.6    94  35.2  35.3 100.2
2020-01-24 06:34   8.2   8.7    94  35.2  35.3 100.2
2020-01-24 06:32   8.0   8.4    95  35.2  35.3 100.2
2020-01-24 06:30   7.6   8.0    95  35.2  35.3 100.2
2020-01-24 06:28   7.6   8.2    96  35.2  35.3 100.2
2020-01-24 06:26   7.4   8.4    96  35.2  35.3 100.2
2020-01-24 06:24   7.4   8.2    96  35.2  35.3 100.2
2020-01-24 06:22   7.2   7.6    96  35.2  35.3 100.2
2020-01-24 06:20   7.0   7.4    96  35.1  35.1 100.2